sensor_id;sensor_type;location;lat;lon;timestamp;P1;durP1;ratioP1;P2;durP2;ratioP2
19285;SDS011;9776;50.798;6.430;2023-02-16T00:00:11;9.05;;;8.25;;
19285;SDS011;9776;50.798;6.430;2023-02-16T00:02:42;8.45;;;7.75;;
19285;SDS011;9776;50.798;6.430;2023-02-16T00:05:12;8.50;;;7.80;;
19285;SDS011;9776;50.798;6.430;2023-02-16T00:07:49;8.13;;;7.43;;
19285;SDS011;9776;50.798;6.430;2023-02-16T00:10:15;7.72;;;7.03;;
19285;SDS011;9776;50.798;6.430;2023-02-16T00:12:42;9.07;;;8.27;;
19285;SDS011;9776;50.798;6.430;2023-02-16T00:15:26;8.15;;;7.45;;
19285;SDS011;9776;50.798;6.430;2023-02-16T00:17:54;8.63;;;7.93;;
19285;SDS011;9776;50.798;6.430;2023-02-16T00:20:24;9.32;;;8.52;;
19285;SDS011;9776;50.798;6.430;2023-02-16T00:22:51;8.68;;;7.88;;
19285;SDS011;9776;50.798;6.430;2023-02-16T00:25:17;9.63;;;8.73;;
19285;SDS011;9776;50.798;6.430;2023-02-16T00:27:44;8.30;;;7.50;;
19285;SDS011;9776;50.798;6.430;2023-02-16T00:30:13;8.77;;;7.97;;
19285;SDS011;9776;50.798;6.430;2023-02-16T00:32:39;8.50;;;7.78;;
19285;SDS011;9776;50.798;6.430;2023-02-16T00:35:12;8.25;;;7.55;;
19285;SDS011;9776;50.798;6.430;2023-02-16T00:37:39;8.68;;;7.88;;
19285;SDS011;9776;50.798;6.430;2023-02-16T00:40:06;8.45;;;7.75;;
19285;SDS011;9776;50.798;6.430;2023-02-16T00:42:34;8.27;;;7.50;;
19285;SDS011;9776;50.798;6.430;2023-02-16T00:45:01;8.15;;;7.40;;
19285;SDS011;9776;50.798;6.430;2023-02-16T00:47:29;7.28;;;6.68;;
19285;SDS011;9776;50.798;6.430;2023-02-16T00:49:59;7.88;;;7.22;;
19285;SDS011;9776;50.798;6.430;2023-02-16T00:52:32;8.20;;;7.50;;
19285;SDS011;9776;50.798;6.430;2023-02-16T00:55:00;7.50;;;6.90;;
19285;SDS011;9776;50.798;6.430;2023-02-16T00:57:30;7.38;;;6.75;;
19285;SDS011;9776;50.798;6.430;2023-02-16T00:59:59;8.43;;;7.72;;
19285;SDS011;9776;50.798;6.430;2023-02-16T01:02:30;7.22;;;6.63;;
19285;SDS011;9776;50.798;6.430;2023-02-16T01:04:57;7.28;;;6.68;;
19285;SDS011;9776;50.798;6.430;2023-02-16T01:07:23;7.15;;;6.55;;
19285;SDS011;9776;50.798;6.430;2023-02-16T01:10:10;7.03;;;6.43;;
19285;SDS011;9776;50.798;6.430;2023-02-16T01:12:54;6.78;;;6.18;;
19285;SDS011;9776;50.798;6.430;2023-02-16T01:15:21;7.20;;;6.60;;
19285;SDS011;9776;50.798;6.430;2023-02-16T01:17:51;7.25;;;6.65;;
19285;SDS011;9776;50.798;6.430;2023-02-16T01:20:18;7.03;;;6.43;;
19285;SDS011;9776;50.798;6.430;2023-02-16T01:22:46;7.00;;;6.40;;
19285;SDS011;9776;50.798;6.430;2023-02-16T01:25:14;7.03;;;6.43;;
19285;SDS011;9776;50.798;6.430;2023-02-16T01:27:42;7.10;;;6.50;;
19285;SDS011;9776;50.798;6.430;2023-02-16T01:30:10;6.57;;;6.07;;
19285;SDS011;9776;50.798;6.430;2023-02-16T01:32:39;6.60;;;6.10;;
19285;SDS011;9776;50.798;6.430;2023-02-16T01:35:06;6.82;;;6.22;;
19285;SDS011;9776;50.798;6.430;2023-02-16T01:37:33;6.55;;;6.05;;
19285;SDS011;9776;50.798;6.430;2023-02-16T01:40:00;6.10;;;5.47;;
19285;SDS011;9776;50.798;6.430;2023-02-16T01:42:30;5.47;;;5.07;;
19285;SDS011;9776;50.798;6.430;2023-02-16T01:45:03;5.65;;;5.25;;
19285;SDS011;9776;50.798;6.430;2023-02-16T01:47:35;5.95;;;5.45;;
19285;SDS011;9776;50.798;6.430;2023-02-16T01:50:13;6.15;;;5.65;;
19285;SDS011;9776;50.798;6.430;2023-02-16T01:52:43;5.88;;;5.38;;
19285;SDS011;9776;50.798;6.430;2023-02-16T01:55:14;5.47;;;5.05;;
19285;SDS011;9776;50.798;6.430;2023-02-16T01:57:47;6.03;;;5.50;;
19285;SDS011;9776;50.798;6.430;2023-02-16T02:00:18;5.70;;;5.22;;
19285;SDS011;9776;50.798;6.430;2023-02-16T02:02:51;5.85;;;5.35;;
19285;SDS011;9776;50.798;6.430;2023-02-16T02:05:42;5.68;;;5.18;;
19285;SDS011;9776;50.798;6.430;2023-02-16T02:08:11;5.80;;;5.30;;
19285;SDS011;9776;50.798;6.430;2023-02-16T02:10:47;5.65;;;5.18;;
19285;SDS011;9776;50.798;6.430;2023-02-16T02:13:23;5.80;;;5.30;;
19285;SDS011;9776;50.798;6.430;2023-02-16T02:15:54;5.82;;;5.32;;
19285;SDS011;9776;50.798;6.430;2023-02-16T02:18:23;5.45;;;5.05;;
19285;SDS011;9776;50.798;6.430;2023-02-16T02:20:54;5.82;;;5.35;;
19285;SDS011;9776;50.798;6.430;2023-02-16T02:24:04;6.38;;;5.88;;
19285;SDS011;9776;50.798;6.430;2023-02-16T02:26:56;6.10;;;5.60;;
19285;SDS011;9776;50.798;6.430;2023-02-16T02:29:38;6.40;;;5.90;;
19285;SDS011;9776;50.798;6.430;2023-02-16T02:32:16;6.45;;;5.95;;
19285;SDS011;9776;50.798;6.430;2023-02-16T02:34:53;5.82;;;5.32;;
19285;SDS011;9776;50.798;6.430;2023-02-16T02:37:40;6.43;;;5.93;;
19285;SDS011;9776;50.798;6.430;2023-02-16T02:40:15;6.45;;;5.85;;
19285;SDS011;9776;50.798;6.430;2023-02-16T02:42:53;6.20;;;5.60;;
19285;SDS011;9776;50.798;6.430;2023-02-16T02:45:30;5.82;;;5.32;;
19285;SDS011;9776;50.798;6.430;2023-02-16T02:48:00;6.80;;;6.20;;
19285;SDS011;9776;50.798;6.430;2023-02-16T02:50:44;6.38;;;5.85;;
19285;SDS011;9776;50.798;6.430;2023-02-16T02:53:28;5.97;;;5.47;;
19285;SDS011;9776;50.798;6.430;2023-02-16T02:55:55;6.18;;;5.68;;
19285;SDS011;9776;50.798;6.430;2023-02-16T02:58:43;6.60;;;6.05;;
19285;SDS011;9776;50.798;6.430;2023-02-16T03:01:33;6.47;;;5.97;;
19285;SDS011;9776;50.798;6.430;2023-02-16T03:04:03;6.32;;;5.80;;
19285;SDS011;9776;50.798;6.430;2023-02-16T03:06:35;5.85;;;5.35;;
19285;SDS011;9776;50.798;6.430;2023-02-16T03:09:06;6.65;;;6.15;;
19285;SDS011;9776;50.798;6.430;2023-02-16T03:11:36;6.60;;;6.07;;
19285;SDS011;9776;50.798;6.430;2023-02-16T03:14:23;6.15;;;5.65;;
19285;SDS011;9776;50.798;6.430;2023-02-16T03:16:54;6.43;;;5.90;;
19285;SDS011;9776;50.798;6.430;2023-02-16T03:19:41;6.03;;;5.53;;
19285;SDS011;9776;50.798;6.430;2023-02-16T03:22:27;6.07;;;5.57;;
19285;SDS011;9776;50.798;6.430;2023-02-16T03:25:12;6.20;;;5.70;;
19285;SDS011;9776;50.798;6.430;2023-02-16T03:27:56;6.63;;;6.03;;
19285;SDS011;9776;50.798;6.430;2023-02-16T03:30:44;6.10;;;5.60;;
19285;SDS011;9776;50.798;6.430;2023-02-16T03:33:12;6.13;;;5.63;;
19285;SDS011;9776;50.798;6.430;2023-02-16T03:35:39;6.18;;;5.68;;
19285;SDS011;9776;50.798;6.430;2023-02-16T03:38:06;6.88;;;6.30;;
19285;SDS011;9776;50.798;6.430;2023-02-16T03:40:34;7.20;;;6.60;;
19285;SDS011;9776;50.798;6.430;2023-02-16T03:43:05;6.22;;;5.72;;
19285;SDS011;9776;50.798;6.430;2023-02-16T03:45:33;6.15;;;5.65;;
19285;SDS011;9776;50.798;6.430;2023-02-16T03:48:04;7.40;;;6.70;;
19285;SDS011;9776;50.798;6.430;2023-02-16T03:50:31;6.45;;;5.93;;
19285;SDS011;9776;50.798;6.430;2023-02-16T03:52:58;6.60;;;6.10;;
19285;SDS011;9776;50.798;6.430;2023-02-16T03:55:31;6.32;;;5.72;;
19285;SDS011;9776;50.798;6.430;2023-02-16T03:57:59;6.15;;;5.65;;
19285;SDS011;9776;50.798;6.430;2023-02-16T04:00:25;6.35;;;5.85;;
19285;SDS011;9776;50.798;6.430;2023-02-16T04:02:53;6.63;;;5.97;;
19285;SDS011;9776;50.798;6.430;2023-02-16T04:05:21;6.13;;;5.72;;
19285;SDS011;9776;50.798;6.430;2023-02-16T04:07:47;6.68;;;6.18;;
19285;SDS011;9776;50.798;6.430;2023-02-16T04:10:14;7.13;;;6.47;;
19285;SDS011;9776;50.798;6.430;2023-02-16T04:12:41;6.75;;;6.25;;
19285;SDS011;9776;50.798;6.430;2023-02-16T04:15:08;7.07;;;6.50;;
19285;SDS011;9776;50.798;6.430;2023-02-16T04:17:36;7.05;;;6.45;;
19285;SDS011;9776;50.798;6.430;2023-02-16T04:20:04;6.95;;;6.45;;
19285;SDS011;9776;50.798;6.430;2023-02-16T04:22:34;7.18;;;6.57;;
19285;SDS011;9776;50.798;6.430;2023-02-16T04:25:00;7.00;;;6.43;;
19285;SDS011;9776;50.798;6.430;2023-02-16T04:27:27;7.87;;;7.23;;
19285;SDS011;9776;50.798;6.430;2023-02-16T04:29:54;6.93;;;6.37;;
19285;SDS011;9776;50.798;6.430;2023-02-16T04:32:20;7.20;;;6.60;;
19285;SDS011;9776;50.798;6.430;2023-02-16T04:34:47;7.45;;;6.75;;
19285;SDS011;9776;50.798;6.430;2023-02-16T04:37:14;7.32;;;6.72;;
19285;SDS011;9776;50.798;6.430;2023-02-16T04:39:42;7.13;;;6.53;;
19285;SDS011;9776;50.798;6.430;2023-02-16T04:42:08;7.28;;;6.68;;
19285;SDS011;9776;50.798;6.430;2023-02-16T04:44:35;7.63;;;6.93;;
19285;SDS011;9776;50.798;6.430;2023-02-16T04:47:02;7.47;;;6.78;;
19285;SDS011;9776;50.798;6.430;2023-02-16T04:49:28;8.57;;;7.78;;
19285;SDS011;9776;50.798;6.430;2023-02-16T04:51:55;8.25;;;7.50;;
19285;SDS011;9776;50.798;6.430;2023-02-16T04:54:22;8.07;;;7.35;;
19285;SDS011;9776;50.798;6.430;2023-02-16T04:56:50;8.05;;;7.40;;
19285;SDS011;9776;50.798;6.430;2023-02-16T04:59:17;8.13;;;7.47;;
19285;SDS011;9776;50.798;6.430;2023-02-16T05:01:43;7.68;;;7.07;;
19285;SDS011;9776;50.798;6.430;2023-02-16T05:04:10;7.68;;;7.07;;
19285;SDS011;9776;50.798;6.430;2023-02-16T05:06:37;7.70;;;7.10;;
19285;SDS011;9776;50.798;6.430;2023-02-16T05:09:04;7.87;;;7.17;;
19285;SDS011;9776;50.798;6.430;2023-02-16T05:11:32;7.72;;;7.03;;
19285;SDS011;9776;50.798;6.430;2023-02-16T05:14:19;7.38;;;6.70;;
19285;SDS011;9776;50.798;6.430;2023-02-16T05:17:05;7.47;;;6.88;;
19285;SDS011;9776;50.798;6.430;2023-02-16T05:19:32;8.00;;;7.30;;
19285;SDS011;9776;50.798;6.430;2023-02-16T05:21:59;8.20;;;7.60;;
19285;SDS011;9776;50.798;6.430;2023-02-16T05:24:25;8.05;;;7.35;;
19285;SDS011;9776;50.798;6.430;2023-02-16T05:26:52;8.43;;;7.72;;
19285;SDS011;9776;50.798;6.430;2023-02-16T05:29:20;8.02;;;7.32;;
19285;SDS011;9776;50.798;6.430;2023-02-16T05:31:47;8.60;;;7.80;;
19285;SDS011;9776;50.798;6.430;2023-02-16T05:34:14;8.00;;;7.30;;
19285;SDS011;9776;50.798;6.430;2023-02-16T05:36:40;8.50;;;7.78;;
19285;SDS011;9776;50.798;6.430;2023-02-16T05:39:07;8.50;;;7.80;;
19285;SDS011;9776;50.798;6.430;2023-02-16T05:41:34;8.60;;;7.88;;
19285;SDS011;9776;50.798;6.430;2023-02-16T05:44:02;9.10;;;8.40;;
19285;SDS011;9776;50.798;6.430;2023-02-16T05:46:31;8.65;;;7.85;;
19285;SDS011;9776;50.798;6.430;2023-02-16T05:49:00;9.02;;;8.27;;
19285;SDS011;9776;50.798;6.430;2023-02-16T05:51:27;7.63;;;7.03;;
19285;SDS011;9776;50.798;6.430;2023-02-16T05:53:54;8.68;;;7.88;;
19285;SDS011;9776;50.798;6.430;2023-02-16T05:56:21;8.52;;;7.72;;
19285;SDS011;9776;50.798;6.430;2023-02-16T05:58:48;8.98;;;8.25;;
19285;SDS011;9776;50.798;6.430;2023-02-16T06:01:16;8.90;;;8.10;;
19285;SDS011;9776;50.798;6.430;2023-02-16T06:03:44;8.90;;;8.10;;
19285;SDS011;9776;50.798;6.430;2023-02-16T06:06:11;8.10;;;7.40;;
19285;SDS011;9776;50.798;6.430;2023-02-16T06:08:38;8.55;;;7.85;;
19285;SDS011;9776;50.798;6.430;2023-02-16T06:11:05;8.10;;;7.40;;
19285;SDS011;9776;50.798;6.430;2023-02-16T06:13:52;8.38;;;7.68;;
19285;SDS011;9776;50.798;6.430;2023-02-16T06:16:22;8.75;;;8.05;;
19285;SDS011;9776;50.798;6.430;2023-02-16T06:18:51;8.07;;;7.47;;
19285;SDS011;9776;50.798;6.430;2023-02-16T06:21:18;8.13;;;7.43;;
19285;SDS011;9776;50.798;6.430;2023-02-16T06:23:45;8.30;;;7.60;;
19285;SDS011;9776;50.798;6.430;2023-02-16T06:26:12;7.95;;;7.25;;
19285;SDS011;9776;50.798;6.430;2023-02-16T06:28:39;8.35;;;7.63;;
19285;SDS011;9776;50.798;6.430;2023-02-16T06:31:07;8.27;;;7.57;;
19285;SDS011;9776;50.798;6.430;2023-02-16T06:33:33;8.95;;;8.15;;
19285;SDS011;9776;50.798;6.430;2023-02-16T06:36:02;8.23;;;7.53;;
19285;SDS011;9776;50.798;6.430;2023-02-16T06:38:29;9.63;;;8.82;;
19285;SDS011;9776;50.798;6.430;2023-02-16T06:40:56;8.18;;;7.55;;
19285;SDS011;9776;50.798;6.430;2023-02-16T06:43:22;7.57;;;6.93;;
19285;SDS011;9776;50.798;6.430;2023-02-16T06:45:49;8.45;;;7.63;;
19285;SDS011;9776;50.798;6.430;2023-02-16T06:48:16;7.93;;;7.22;;
19285;SDS011;9776;50.798;6.430;2023-02-16T06:50:43;8.05;;;7.35;;
19285;SDS011;9776;50.798;6.430;2023-02-16T06:53:11;8.02;;;7.40;;
19285;SDS011;9776;50.798;6.430;2023-02-16T06:55:38;7.82;;;7.22;;
19285;SDS011;9776;50.798;6.430;2023-02-16T06:58:05;7.63;;;7.03;;
19285;SDS011;9776;50.798;6.430;2023-02-16T07:00:32;7.72;;;7.05;;
19285;SDS011;9776;50.798;6.430;2023-02-16T07:02:59;7.78;;;7.18;;
19285;SDS011;9776;50.798;6.430;2023-02-16T07:05:26;7.22;;;6.63;;
19285;SDS011;9776;50.798;6.430;2023-02-16T07:07:53;6.80;;;6.25;;
19285;SDS011;9776;50.798;6.430;2023-02-16T07:10:22;7.45;;;6.85;;
19285;SDS011;9776;50.798;6.430;2023-02-16T07:12:48;6.65;;;6.13;;
19285;SDS011;9776;50.798;6.430;2023-02-16T07:15:15;7.55;;;6.95;;
19285;SDS011;9776;50.798;6.430;2023-02-16T07:17:42;8.00;;;7.30;;
19285;SDS011;9776;50.798;6.430;2023-02-16T07:20:09;7.28;;;6.68;;
19285;SDS011;9776;50.798;6.430;2023-02-16T07:22:37;7.75;;;7.05;;
19285;SDS011;9776;50.798;6.430;2023-02-16T07:25:04;6.85;;;6.35;;
19285;SDS011;9776;50.798;6.430;2023-02-16T07:27:33;7.82;;;7.22;;
19285;SDS011;9776;50.798;6.430;2023-02-16T07:30:00;7.50;;;6.90;;
19285;SDS011;9776;50.798;6.430;2023-02-16T07:32:27;7.65;;;7.05;;
19285;SDS011;9776;50.798;6.430;2023-02-16T07:34:55;7.10;;;6.60;;
19285;SDS011;9776;50.798;6.430;2023-02-16T07:37:21;7.38;;;6.88;;
19285;SDS011;9776;50.798;6.430;2023-02-16T07:39:48;7.13;;;6.53;;
19285;SDS011;9776;50.798;6.430;2023-02-16T07:42:14;7.10;;;6.60;;
19285;SDS011;9776;50.798;6.430;2023-02-16T07:44:43;7.18;;;6.65;;
19285;SDS011;9776;50.798;6.430;2023-02-16T07:47:09;7.85;;;7.25;;
19285;SDS011;9776;50.798;6.430;2023-02-16T07:49:37;7.28;;;6.68;;
19285;SDS011;9776;50.798;6.430;2023-02-16T07:52:07;8.18;;;7.47;;
19285;SDS011;9776;50.798;6.430;2023-02-16T07:54:34;7.82;;;7.22;;
19285;SDS011;9776;50.798;6.430;2023-02-16T07:57:00;7.60;;;7.00;;
19285;SDS011;9776;50.798;6.430;2023-02-16T07:59:27;6.65;;;6.15;;
19285;SDS011;9776;50.798;6.430;2023-02-16T08:01:55;7.45;;;6.85;;
19285;SDS011;9776;50.798;6.430;2023-02-16T08:04:22;7.45;;;6.85;;
19285;SDS011;9776;50.798;6.430;2023-02-16T08:06:49;7.72;;;7.13;;
19285;SDS011;9776;50.798;6.430;2023-02-16T08:09:15;8.85;;;7.15;;
19285;SDS011;9776;50.798;6.430;2023-02-16T08:11:42;7.63;;;7.03;;
19285;SDS011;9776;50.798;6.430;2023-02-16T08:14:09;7.75;;;7.15;;
19285;SDS011;9776;50.798;6.430;2023-02-16T08:16:36;7.53;;;6.88;;
19285;SDS011;9776;50.798;6.430;2023-02-16T08:19:04;7.75;;;7.05;;
19285;SDS011;9776;50.798;6.430;2023-02-16T08:21:33;7.47;;;6.88;;
19285;SDS011;9776;50.798;6.430;2023-02-16T08:24:01;7.32;;;6.72;;
19285;SDS011;9776;50.798;6.430;2023-02-16T08:26:29;7.07;;;6.47;;
19285;SDS011;9776;50.798;6.430;2023-02-16T08:29:00;7.30;;;6.70;;
19285;SDS011;9776;50.798;6.430;2023-02-16T08:31:28;7.60;;;6.90;;
19285;SDS011;9776;50.798;6.430;2023-02-16T08:33:56;7.30;;;6.72;;
19285;SDS011;9776;50.798;6.430;2023-02-16T08:36:27;7.40;;;6.80;;
19285;SDS011;9776;50.798;6.430;2023-02-16T08:38:56;7.25;;;6.75;;
19285;SDS011;9776;50.798;6.430;2023-02-16T08:41:30;7.50;;;6.90;;
19285;SDS011;9776;50.798;6.430;2023-02-16T08:43:59;8.02;;;7.43;;
19285;SDS011;9776;50.798;6.430;2023-02-16T08:46:26;7.32;;;6.80;;
19285;SDS011;9776;50.798;6.430;2023-02-16T08:48:54;7.03;;;6.45;;
19285;SDS011;9776;50.798;6.430;2023-02-16T08:51:24;7.80;;;7.18;;
19285;SDS011;9776;50.798;6.430;2023-02-16T08:53:58;7.75;;;7.15;;
19285;SDS011;9776;50.798;6.430;2023-02-16T08:56:25;8.30;;;7.70;;
19285;SDS011;9776;50.798;6.430;2023-02-16T08:58:53;8.48;;;7.85;;
19285;SDS011;9776;50.798;6.430;2023-02-16T09:01:20;9.10;;;8.40;;
19285;SDS011;9776;50.798;6.430;2023-02-16T09:03:47;8.45;;;7.75;;
19285;SDS011;9776;50.798;6.430;2023-02-16T09:06:15;7.80;;;7.20;;
19285;SDS011;9776;50.798;6.430;2023-02-16T09:08:44;7.30;;;6.75;;
19285;SDS011;9776;50.798;6.430;2023-02-16T09:11:14;7.15;;;6.55;;
19285;SDS011;9776;50.798;6.430;2023-02-16T09:13:41;8.13;;;7.53;;
19285;SDS011;9776;50.798;6.430;2023-02-16T09:16:09;7.80;;;7.20;;
19285;SDS011;9776;50.798;6.430;2023-02-16T09:18:40;7.22;;;6.63;;
19285;SDS011;9776;50.798;6.430;2023-02-16T09:21:09;7.45;;;6.90;;
19285;SDS011;9776;50.798;6.430;2023-02-16T09:23:38;7.18;;;6.57;;
19285;SDS011;9776;50.798;6.430;2023-02-16T09:26:05;7.53;;;6.93;;
19285;SDS011;9776;50.798;6.430;2023-02-16T09:28:33;7.25;;;6.65;;
19285;SDS011;9776;50.798;6.430;2023-02-16T09:31:07;6.32;;;5.85;;
19285;SDS011;9776;50.798;6.430;2023-02-16T09:33:35;7.88;;;7.28;;
19285;SDS011;9776;50.798;6.430;2023-02-16T09:36:03;6.68;;;6.18;;
19285;SDS011;9776;50.798;6.430;2023-02-16T09:38:31;7.30;;;6.70;;
19285;SDS011;9776;50.798;6.430;2023-02-16T09:40:58;7.22;;;6.63;;
19285;SDS011;9776;50.798;6.430;2023-02-16T09:43:33;6.75;;;6.25;;
19285;SDS011;9776;50.798;6.430;2023-02-16T09:46:11;7.03;;;6.32;;
19285;SDS011;9776;50.798;6.430;2023-02-16T09:48:41;7.72;;;7.13;;
19285;SDS011;9776;50.798;6.430;2023-02-16T09:51:13;7.50;;;6.90;;
19285;SDS011;9776;50.798;6.430;2023-02-16T09:53:44;6.60;;;6.10;;
19285;SDS011;9776;50.798;6.430;2023-02-16T09:56:20;6.97;;;6.38;;
19285;SDS011;9776;50.798;6.430;2023-02-16T09:58:56;6.63;;;6.15;;
19285;SDS011;9776;50.798;6.430;2023-02-16T10:01:30;7.10;;;6.50;;
19285;SDS011;9776;50.798;6.430;2023-02-16T10:04:05;6.40;;;5.90;;
19285;SDS011;9776;50.798;6.430;2023-02-16T10:06:49;6.40;;;5.90;;
19285;SDS011;9776;50.798;6.430;2023-02-16T10:09:22;5.50;;;5.10;;
19285;SDS011;9776;50.798;6.430;2023-02-16T10:11:52;4.93;;;4.53;;
19285;SDS011;9776;50.798;6.430;2023-02-16T10:14:30;5.05;;;4.65;;
19285;SDS011;9776;50.798;6.430;2023-02-16T10:17:12;5.40;;;5.00;;
19285;SDS011;9776;50.798;6.430;2023-02-16T10:19:42;4.90;;;4.60;;
19285;SDS011;9776;50.798;6.430;2023-02-16T10:22:16;4.95;;;4.65;;
19285;SDS011;9776;50.798;6.430;2023-02-16T10:24:50;5.70;;;5.30;;
19285;SDS011;9776;50.798;6.430;2023-02-16T10:27:23;5.13;;;4.72;;
19285;SDS011;9776;50.798;6.430;2023-02-16T10:29:58;5.40;;;5.00;;
19285;SDS011;9776;50.798;6.430;2023-02-16T10:32:26;5.20;;;4.80;;
19285;SDS011;9776;50.798;6.430;2023-02-16T10:34:57;5.10;;;4.70;;
19285;SDS011;9776;50.798;6.430;2023-02-16T10:37:38;4.93;;;4.53;;
19285;SDS011;9776;50.798;6.430;2023-02-16T10:40:19;5.45;;;4.95;;
19285;SDS011;9776;50.798;6.430;2023-02-16T10:42:53;5.43;;;5.03;;
19285;SDS011;9776;50.798;6.430;2023-02-16T10:45:26;5.43;;;5.03;;
19285;SDS011;9776;50.798;6.430;2023-02-16T10:47:57;5.55;;;5.15;;
19285;SDS011;9776;50.798;6.430;2023-02-16T10:50:25;5.38;;;4.97;;
19285;SDS011;9776;50.798;6.430;2023-02-16T10:52:56;5.38;;;4.90;;
19285;SDS011;9776;50.798;6.430;2023-02-16T10:55:26;5.53;;;5.07;;
19285;SDS011;9776;50.798;6.430;2023-02-16T10:57:53;5.25;;;4.85;;
19285;SDS011;9776;50.798;6.430;2023-02-16T11:00:25;5.90;;;5.45;;
19285;SDS011;9776;50.798;6.430;2023-02-16T11:03:01;5.47;;;5.07;;
19285;SDS011;9776;50.798;6.430;2023-02-16T11:05:34;5.72;;;5.30;;
19285;SDS011;9776;50.798;6.430;2023-02-16T11:08:02;5.88;;;5.38;;
19285;SDS011;9776;50.798;6.430;2023-02-16T11:10:38;5.45;;;5.05;;
19285;SDS011;9776;50.798;6.430;2023-02-16T11:13:16;6.10;;;5.57;;
19285;SDS011;9776;50.798;6.430;2023-02-16T11:15:57;5.72;;;5.32;;
19285;SDS011;9776;50.798;6.430;2023-02-16T11:18:31;6.15;;;5.65;;
19285;SDS011;9776;50.798;6.430;2023-02-16T11:21:02;5.70;;;5.30;;
19285;SDS011;9776;50.798;6.430;2023-02-16T11:23:30;5.95;;;5.40;;
19285;SDS011;9776;50.798;6.430;2023-02-16T11:25:59;5.50;;;5.10;;
19285;SDS011;9776;50.798;6.430;2023-02-16T11:28:29;5.97;;;5.47;;
19285;SDS011;9776;50.798;6.430;2023-02-16T11:31:00;5.65;;;5.15;;
19285;SDS011;9776;50.798;6.430;2023-02-16T11:33:35;5.93;;;5.47;;
19285;SDS011;9776;50.798;6.430;2023-02-16T11:36:03;5.80;;;5.30;;
19285;SDS011;9776;50.798;6.430;2023-02-16T11:38:54;5.40;;;5.00;;
19285;SDS011;9776;50.798;6.430;2023-02-16T11:41:22;6.32;;;5.75;;
19285;SDS011;9776;50.798;6.430;2023-02-16T11:43:51;5.90;;;5.40;;
19285;SDS011;9776;50.798;6.430;2023-02-16T11:46:20;5.00;;;4.60;;
19285;SDS011;9776;50.798;6.430;2023-02-16T11:48:48;5.72;;;5.13;;
19285;SDS011;9776;50.798;6.430;2023-02-16T11:51:16;5.05;;;4.65;;
19285;SDS011;9776;50.798;6.430;2023-02-16T11:53:58;5.55;;;5.05;;
19285;SDS011;9776;50.798;6.430;2023-02-16T11:56:26;5.25;;;4.85;;
19285;SDS011;9776;50.798;6.430;2023-02-16T11:59:05;5.50;;;5.10;;
19285;SDS011;9776;50.798;6.430;2023-02-16T12:01:41;5.65;;;5.13;;
19285;SDS011;9776;50.798;6.430;2023-02-16T12:04:25;4.78;;;4.40;;
19285;SDS011;9776;50.798;6.430;2023-02-16T12:07:05;5.13;;;4.82;;
19285;SDS011;9776;50.798;6.430;2023-02-16T12:09:42;5.10;;;4.70;;
19285;SDS011;9776;50.798;6.430;2023-02-16T12:12:15;5.10;;;4.70;;
19285;SDS011;9776;50.798;6.430;2023-02-16T12:14:50;5.28;;;4.95;;
19285;SDS011;9776;50.798;6.430;2023-02-16T12:17:32;5.20;;;4.80;;
19285;SDS011;9776;50.798;6.430;2023-02-16T12:20:14;5.32;;;4.88;;
19285;SDS011;9776;50.798;6.430;2023-02-16T12:22:58;4.97;;;4.47;;
19285;SDS011;9776;50.798;6.430;2023-02-16T12:25:36;5.70;;;5.30;;
19285;SDS011;9776;50.798;6.430;2023-02-16T12:28:12;6.07;;;5.65;;
19285;SDS011;9776;50.798;6.430;2023-02-16T12:30:49;6.05;;;5.55;;
19285;SDS011;9776;50.798;6.430;2023-02-16T12:33:28;6.68;;;6.18;;
19285;SDS011;9776;50.798;6.430;2023-02-16T12:36:19;5.40;;;5.00;;
19285;SDS011;9776;50.798;6.430;2023-02-16T12:38:59;5.00;;;4.60;;
19285;SDS011;9776;50.798;6.430;2023-02-16T12:41:37;4.80;;;4.47;;
19285;SDS011;9776;50.798;6.430;2023-02-16T12:44:14;5.50;;;5.10;;
19285;SDS011;9776;50.798;6.430;2023-02-16T12:46:43;5.80;;;5.22;;
19285;SDS011;9776;50.798;6.430;2023-02-16T12:49:15;5.07;;;4.68;;
19285;SDS011;9776;50.798;6.430;2023-02-16T12:51:49;5.18;;;4.80;;
19285;SDS011;9776;50.798;6.430;2023-02-16T12:54:21;5.93;;;5.50;;
19285;SDS011;9776;50.798;6.430;2023-02-16T12:56:53;5.25;;;4.75;;
19285;SDS011;9776;50.798;6.430;2023-02-16T12:59:29;4.88;;;4.47;;
19285;SDS011;9776;50.798;6.430;2023-02-16T13:02:02;5.35;;;4.95;;
19285;SDS011;9776;50.798;6.430;2023-02-16T13:04:35;4.85;;;4.45;;
19285;SDS011;9776;50.798;6.430;2023-02-16T13:07:06;4.90;;;4.50;;
19285;SDS011;9776;50.798;6.430;2023-02-16T13:09:43;4.78;;;4.45;;
19285;SDS011;9776;50.798;6.430;2023-02-16T13:12:22;4.80;;;4.50;;
19285;SDS011;9776;50.798;6.430;2023-02-16T13:14:55;4.35;;;4.05;;
19285;SDS011;9776;50.798;6.430;2023-02-16T13:17:30;5.22;;;4.65;;
19285;SDS011;9776;50.798;6.430;2023-02-16T13:20:01;6.07;;;5.47;;
19285;SDS011;9776;50.798;6.430;2023-02-16T13:22:36;5.55;;;5.15;;
19285;SDS011;9776;50.798;6.430;2023-02-16T13:25:34;5.03;;;4.63;;
19285;SDS011;9776;50.798;6.430;2023-02-16T13:28:20;5.15;;;4.85;;
19285;SDS011;9776;50.798;6.430;2023-02-16T13:31:09;5.60;;;5.10;;
19285;SDS011;9776;50.798;6.430;2023-02-16T13:33:49;5.63;;;5.22;;
19285;SDS011;9776;50.798;6.430;2023-02-16T13:36:47;5.05;;;4.72;;
19285;SDS011;9776;50.798;6.430;2023-02-16T13:45:13;4.78;;;4.28;;
19285;SDS011;9776;50.798;6.430;2023-02-16T13:47:42;4.28;;;3.85;;
19285;SDS011;9776;50.798;6.430;2023-02-16T13:50:22;3.72;;;3.42;;
19285;SDS011;9776;50.798;6.430;2023-02-16T13:52:54;3.95;;;3.72;;
19285;SDS011;9776;50.798;6.430;2023-02-16T13:55:24;6.47;;;3.95;;
19285;SDS011;9776;50.798;6.430;2023-02-16T13:57:56;4.20;;;3.90;;
19285;SDS011;9776;50.798;6.430;2023-02-16T14:00:27;9.80;;;4.25;;
19285;SDS011;9776;50.798;6.430;2023-02-16T14:02:58;3.85;;;3.55;;
19285;SDS011;9776;50.798;6.430;2023-02-16T14:05:28;4.60;;;4.30;;
19285;SDS011;9776;50.798;6.430;2023-02-16T14:08:17;4.95;;;4.60;;
19285;SDS011;9776;50.798;6.430;2023-02-16T14:13:47;4.28;;;3.97;;
19285;SDS011;9776;50.798;6.430;2023-02-16T14:16:26;7.55;;;5.05;;
19285;SDS011;9776;50.798;6.430;2023-02-16T14:18:59;4.10;;;3.80;;
19285;SDS011;9776;50.798;6.430;2023-02-16T14:21:30;3.53;;;3.33;;
19285;SDS011;9776;50.798;6.430;2023-02-16T14:24:02;3.47;;;3.28;;
19285;SDS011;9776;50.798;6.430;2023-02-16T14:26:33;3.95;;;3.65;;
19285;SDS011;9776;50.798;6.430;2023-02-16T14:29:17;3.50;;;3.20;;
19285;SDS011;9776;50.798;6.430;2023-02-16T14:31:49;3.22;;;3.03;;
19285;SDS011;9776;50.798;6.430;2023-02-16T14:34:23;3.35;;;3.15;;
19285;SDS011;9776;50.798;6.430;2023-02-16T14:40:04;3.67;;;3.35;;
19285;SDS011;9776;50.798;6.430;2023-02-16T14:42:42;3.08;;;2.88;;
19285;SDS011;9776;50.798;6.430;2023-02-16T14:48:23;3.53;;;2.90;;
19285;SDS011;9776;50.798;6.430;2023-02-16T14:51:01;3.22;;;2.92;;
19285;SDS011;9776;50.798;6.430;2023-02-16T14:53:53;3.20;;;2.92;;
19285;SDS011;9776;50.798;6.430;2023-02-16T14:56:39;3.17;;;2.72;;
19285;SDS011;9776;50.798;6.430;2023-02-16T14:59:16;3.38;;;2.75;;
19285;SDS011;9776;50.798;6.430;2023-02-16T15:01:51;4.72;;;2.70;;
19285;SDS011;9776;50.798;6.430;2023-02-16T15:04:28;3.38;;;2.65;;
19285;SDS011;9776;50.798;6.430;2023-02-16T15:06:56;2.92;;;2.60;;
19285;SDS011;9776;50.798;6.430;2023-02-16T15:09:26;3.10;;;2.90;;
19285;SDS011;9776;50.798;6.430;2023-02-16T15:11:57;3.35;;;2.70;;
19285;SDS011;9776;50.798;6.430;2023-02-16T15:14:44;3.38;;;3.13;;
19285;SDS011;9776;50.798;6.430;2023-02-16T15:17:19;3.65;;;3.35;;
19285;SDS011;9776;50.798;6.430;2023-02-16T15:19:53;4.13;;;3.72;;
19285;SDS011;9776;50.798;6.430;2023-02-16T15:22:24;3.47;;;3.17;;
19285;SDS011;9776;50.798;6.430;2023-02-16T15:24:53;3.67;;;3.38;;
19285;SDS011;9776;50.798;6.430;2023-02-16T15:27:23;4.28;;;3.92;;
19285;SDS011;9776;50.798;6.430;2023-02-16T15:32:49;3.78;;;3.55;;
19285;SDS011;9776;50.798;6.430;2023-02-16T15:35:21;5.30;;;3.97;;
19285;SDS011;9776;50.798;6.430;2023-02-16T15:37:58;4.40;;;3.67;;
19285;SDS011;9776;50.798;6.430;2023-02-16T15:43:01;3.58;;;3.38;;
19285;SDS011;9776;50.798;6.430;2023-02-16T15:45:35;3.72;;;3.53;;
19285;SDS011;9776;50.798;6.430;2023-02-16T15:48:13;7.15;;;4.65;;